CMB812 Details

Departure: Bucholz AAF Airport (PKWA)
Arrival: Daniel K Inouye International Airport (PHNL)
Route: NDJ 1130N/17200E MANRE R584 MCFLY R584 CHOKO
Notes: USTRANSCOM CONTRACT FLIGHT


Current Weather Information
PKWA 251040Z AUTO 07009KT 10SM SCT018 SCT060 28/26 A2991 RMK AO2 T02840258
PHNL 250953Z 05011KT 10SM FEW032 BKN060 27/19 A3009 RMK AO2 SLP187 T02720194 403220233 $